sensor_id;sensor_type;location;lat;lon;timestamp;temperature;humidity
360;DHT22;168;48.872;9.226;2023-04-06T00:01:20;3.50;84.40
360;DHT22;168;48.872;9.226;2023-04-06T00:03:48;3.60;84.30
360;DHT22;168;48.872;9.226;2023-04-06T00:06:15;3.60;84.50
360;DHT22;168;48.872;9.226;2023-04-06T00:08:44;3.50;85.00
360;DHT22;168;48.872;9.226;2023-04-06T00:11:12;3.50;85.60
360;DHT22;168;48.872;9.226;2023-04-06T00:13:39;3.40;85.80
360;DHT22;168;48.872;9.226;2023-04-06T00:16:07;3.40;86.10
360;DHT22;168;48.872;9.226;2023-04-06T00:18:34;3.40;86.20
360;DHT22;168;48.872;9.226;2023-04-06T00:21:02;3.40;86.20
360;DHT22;168;48.872;9.226;2023-04-06T00:23:29;3.40;86.20
360;DHT22;168;48.872;9.226;2023-04-06T00:25:58;3.30;86.30
360;DHT22;168;48.872;9.226;2023-04-06T00:28:26;3.30;86.50
360;DHT22;168;48.872;9.226;2023-04-06T00:30:54;3.30;87.00
360;DHT22;168;48.872;9.226;2023-04-06T00:33:22;3.30;87.20
360;DHT22;168;48.872;9.226;2023-04-06T00:35:50;3.20;87.40
360;DHT22;168;48.872;9.226;2023-04-06T00:38:17;3.20;87.70
360;DHT22;168;48.872;9.226;2023-04-06T00:40:45;3.10;87.60
360;DHT22;168;48.872;9.226;2023-04-06T00:43:14;3.10;88.00
360;DHT22;168;48.872;9.226;2023-04-06T00:45:42;3.10;88.30
360;DHT22;168;48.872;9.226;2023-04-06T00:48:10;3.10;88.30
360;DHT22;168;48.872;9.226;2023-04-06T00:50:37;3.10;88.30
360;DHT22;168;48.872;9.226;2023-04-06T00:53:05;3.10;88.60
360;DHT22;168;48.872;9.226;2023-04-06T00:55:33;3.10;88.30
360;DHT22;168;48.872;9.226;2023-04-06T00:58:02;3.10;88.10
360;DHT22;168;48.872;9.226;2023-04-06T01:00:32;3.00;88.70
360;DHT22;168;48.872;9.226;2023-04-06T01:02:59;2.90;89.30
360;DHT22;168;48.872;9.226;2023-04-06T01:05:27;2.80;89.70
360;DHT22;168;48.872;9.226;2023-04-06T01:07:54;2.80;89.90
360;DHT22;168;48.872;9.226;2023-04-06T01:10:25;2.80;89.70
360;DHT22;168;48.872;9.226;2023-04-06T01:12:53;2.80;89.50
360;DHT22;168;48.872;9.226;2023-04-06T01:15:20;2.80;89.20
360;DHT22;168;48.872;9.226;2023-04-06T01:17:50;2.80;89.20
360;DHT22;168;48.872;9.226;2023-04-06T01:20:17;2.80;89.50
360;DHT22;168;48.872;9.226;2023-04-06T01:22:46;2.80;89.50
360;DHT22;168;48.872;9.226;2023-04-06T01:25:14;2.70;89.70
360;DHT22;168;48.872;9.226;2023-04-06T01:27:41;2.60;90.00
360;DHT22;168;48.872;9.226;2023-04-06T01:30:09;2.70;90.20
360;DHT22;168;48.872;9.226;2023-04-06T01:32:37;2.80;90.30
360;DHT22;168;48.872;9.226;2023-04-06T01:35:05;2.70;90.40
360;DHT22;168;48.872;9.226;2023-04-06T01:37:32;2.60;90.90
360;DHT22;168;48.872;9.226;2023-04-06T01:40:01;2.60;91.30
360;DHT22;168;48.872;9.226;2023-04-06T01:42:29;2.60;91.40
360;DHT22;168;48.872;9.226;2023-04-06T01:44:57;2.60;91.10
360;DHT22;168;48.872;9.226;2023-04-06T01:47:24;2.50;91.30
360;DHT22;168;48.872;9.226;2023-04-06T01:49:52;2.40;91.70
360;DHT22;168;48.872;9.226;2023-04-06T01:52:20;2.40;92.00
360;DHT22;168;48.872;9.226;2023-04-06T01:54:47;2.40;92.00
360;DHT22;168;48.872;9.226;2023-04-06T01:57:16;2.40;92.00
360;DHT22;168;48.872;9.226;2023-04-06T01:59:43;2.30;92.40
360;DHT22;168;48.872;9.226;2023-04-06T02:02:11;2.40;92.40
360;DHT22;168;48.872;9.226;2023-04-06T02:04:39;2.40;92.10
360;DHT22;168;48.872;9.226;2023-04-06T02:07:06;2.40;91.80
360;DHT22;168;48.872;9.226;2023-04-06T02:09:33;2.40;92.00
360;DHT22;168;48.872;9.226;2023-04-06T02:12:01;2.40;92.00
360;DHT22;168;48.872;9.226;2023-04-06T02:14:30;2.30;92.30
360;DHT22;168;48.872;9.226;2023-04-06T02:16:57;2.20;92.60
360;DHT22;168;48.872;9.226;2023-04-06T02:19:25;2.20;92.90
360;DHT22;168;48.872;9.226;2023-04-06T02:21:52;2.20;93.10
360;DHT22;168;48.872;9.226;2023-04-06T02:24:20;2.10;93.10
360;DHT22;168;48.872;9.226;2023-04-06T02:26:47;2.10;93.50
360;DHT22;168;48.872;9.226;2023-04-06T02:29:15;2.00;93.50
360;DHT22;168;48.872;9.226;2023-04-06T02:31:44;2.00;93.50
360;DHT22;168;48.872;9.226;2023-04-06T02:34:11;2.10;93.30
360;DHT22;168;48.872;9.226;2023-04-06T02:36:43;2.20;93.10
360;DHT22;168;48.872;9.226;2023-04-06T02:39:11;2.20;93.10
360;DHT22;168;48.872;9.226;2023-04-06T02:41:38;2.10;93.20
360;DHT22;168;48.872;9.226;2023-04-06T02:44:07;2.00;93.60
360;DHT22;168;48.872;9.226;2023-04-06T02:46:35;1.90;93.70
360;DHT22;168;48.872;9.226;2023-04-06T02:49:04;2.00;93.80
360;DHT22;168;48.872;9.226;2023-04-06T02:51:32;2.00;93.60
360;DHT22;168;48.872;9.226;2023-04-06T02:54:00;2.00;93.80
360;DHT22;168;48.872;9.226;2023-04-06T02:56:27;1.90;93.90
360;DHT22;168;48.872;9.226;2023-04-06T02:58:55;1.90;93.90
360;DHT22;168;48.872;9.226;2023-04-06T03:01:23;1.80;94.00
360;DHT22;168;48.872;9.226;2023-04-06T03:03:50;1.80;94.20
360;DHT22;168;48.872;9.226;2023-04-06T03:06:19;1.80;94.40
360;DHT22;168;48.872;9.226;2023-04-06T03:08:46;1.90;94.40
360;DHT22;168;48.872;9.226;2023-04-06T03:11:14;1.80;94.30
360;DHT22;168;48.872;9.226;2023-04-06T03:13:41;1.80;94.50
360;DHT22;168;48.872;9.226;2023-04-06T03:16:09;1.80;94.50
360;DHT22;168;48.872;9.226;2023-04-06T03:18:37;1.80;94.50
360;DHT22;168;48.872;9.226;2023-04-06T03:21:04;1.80;94.40
360;DHT22;168;48.872;9.226;2023-04-06T03:23:33;1.70;94.50
360;DHT22;168;48.872;9.226;2023-04-06T03:26:01;1.70;94.70
360;DHT22;168;48.872;9.226;2023-04-06T03:28:29;1.70;94.60
360;DHT22;168;48.872;9.226;2023-04-06T03:30:57;1.70;94.70
360;DHT22;168;48.872;9.226;2023-04-06T03:33:24;1.80;94.50
360;DHT22;168;48.872;9.226;2023-04-06T03:35:53;1.80;94.50
360;DHT22;168;48.872;9.226;2023-04-06T03:38:20;1.70;94.90
360;DHT22;168;48.872;9.226;2023-04-06T03:40:49;1.60;95.20
360;DHT22;168;48.872;9.226;2023-04-06T03:43:17;1.60;95.20
360;DHT22;168;48.872;9.226;2023-04-06T03:45:44;1.60;95.30
360;DHT22;168;48.872;9.226;2023-04-06T03:48:11;1.60;95.40
360;DHT22;168;48.872;9.226;2023-04-06T03:50:39;1.60;95.40
360;DHT22;168;48.872;9.226;2023-04-06T03:53:06;1.60;95.40
360;DHT22;168;48.872;9.226;2023-04-06T03:55:34;1.50;95.40
360;DHT22;168;48.872;9.226;2023-04-06T03:58:03;1.50;95.50
360;DHT22;168;48.872;9.226;2023-04-06T04:00:31;1.40;95.80
360;DHT22;168;48.872;9.226;2023-04-06T04:02:59;1.50;95.80
360;DHT22;168;48.872;9.226;2023-04-06T04:05:27;1.50;95.60
360;DHT22;168;48.872;9.226;2023-04-06T04:07:55;1.50;95.50
360;DHT22;168;48.872;9.226;2023-04-06T04:10:22;1.50;95.70
360;DHT22;168;48.872;9.226;2023-04-06T04:12:50;1.50;95.70
360;DHT22;168;48.872;9.226;2023-04-06T04:15:18;1.50;95.80
360;DHT22;168;48.872;9.226;2023-04-06T04:17:46;1.50;95.70
360;DHT22;168;48.872;9.226;2023-04-06T04:20:15;1.50;95.50
360;DHT22;168;48.872;9.226;2023-04-06T04:22:43;1.60;95.50
360;DHT22;168;48.872;9.226;2023-04-06T04:25:10;1.50;95.60
360;DHT22;168;48.872;9.226;2023-04-06T04:27:37;1.40;95.60
360;DHT22;168;48.872;9.226;2023-04-06T04:30:06;1.30;95.60
360;DHT22;168;48.872;9.226;2023-04-06T04:32:35;1.30;95.90
360;DHT22;168;48.872;9.226;2023-04-06T04:35:03;1.30;95.90
360;DHT22;168;48.872;9.226;2023-04-06T04:37:31;1.40;95.80
360;DHT22;168;48.872;9.226;2023-04-06T04:39:58;1.30;95.70
360;DHT22;168;48.872;9.226;2023-04-06T04:42:26;1.30;95.80
360;DHT22;168;48.872;9.226;2023-04-06T04:44:53;1.30;95.90
360;DHT22;168;48.872;9.226;2023-04-06T04:47:20;1.30;95.90
360;DHT22;168;48.872;9.226;2023-04-06T04:49:49;1.20;96.00
360;DHT22;168;48.872;9.226;2023-04-06T04:52:17;1.30;96.20
360;DHT22;168;48.872;9.226;2023-04-06T04:54:44;1.30;96.10
360;DHT22;168;48.872;9.226;2023-04-06T04:57:13;1.20;96.10
360;DHT22;168;48.872;9.226;2023-04-06T04:59:40;1.20;96.10
360;DHT22;168;48.872;9.226;2023-04-06T05:02:07;1.20;96.00
360;DHT22;168;48.872;9.226;2023-04-06T05:04:35;1.20;95.80
360;DHT22;168;48.872;9.226;2023-04-06T05:07:05;1.30;95.70
360;DHT22;168;48.872;9.226;2023-04-06T05:09:33;1.30;95.70
360;DHT22;168;48.872;9.226;2023-04-06T05:12:01;1.30;95.80
360;DHT22;168;48.872;9.226;2023-04-06T05:14:28;1.40;95.80
360;DHT22;168;48.872;9.226;2023-04-06T05:16:56;1.40;95.80
360;DHT22;168;48.872;9.226;2023-04-06T05:19:23;1.40;95.90
360;DHT22;168;48.872;9.226;2023-04-06T05:21:52;1.50;96.00
360;DHT22;168;48.872;9.226;2023-04-06T05:24:21;1.50;96.00
360;DHT22;168;48.872;9.226;2023-04-06T05:26:48;1.50;95.80
360;DHT22;168;48.872;9.226;2023-04-06T05:29:16;1.60;95.70
360;DHT22;168;48.872;9.226;2023-04-06T05:31:44;1.60;95.60
360;DHT22;168;48.872;9.226;2023-04-06T05:34:11;1.60;95.50
360;DHT22;168;48.872;9.226;2023-04-06T05:36:39;1.70;95.30
360;DHT22;168;48.872;9.226;2023-04-06T05:39:07;1.80;95.20
360;DHT22;168;48.872;9.226;2023-04-06T05:41:36;1.80;94.60
360;DHT22;168;48.872;9.226;2023-04-06T05:44:03;1.90;94.40
360;DHT22;168;48.872;9.226;2023-04-06T05:46:31;1.90;94.40
360;DHT22;168;48.872;9.226;2023-04-06T05:48:58;1.90;94.30
360;DHT22;168;48.872;9.226;2023-04-06T05:51:26;2.00;94.40
360;DHT22;168;48.872;9.226;2023-04-06T05:53:53;2.00;94.30
360;DHT22;168;48.872;9.226;2023-04-06T05:56:21;2.10;93.80
360;DHT22;168;48.872;9.226;2023-04-06T05:58:51;2.20;93.40
360;DHT22;168;48.872;9.226;2023-04-06T06:01:18;2.30;93.10
360;DHT22;168;48.872;9.226;2023-04-06T06:03:46;2.40;92.70
360;DHT22;168;48.872;9.226;2023-04-06T06:06:13;2.40;92.60
360;DHT22;168;48.872;9.226;2023-04-06T06:08:40;2.50;92.50
360;DHT22;168;48.872;9.226;2023-04-06T06:11:08;2.60;92.10
360;DHT22;168;48.872;9.226;2023-04-06T06:13:35;2.70;91.80
360;DHT22;168;48.872;9.226;2023-04-06T06:16:05;2.80;91.30
360;DHT22;168;48.872;9.226;2023-04-06T06:18:32;2.90;91.10
360;DHT22;168;48.872;9.226;2023-04-06T06:21:00;3.00;90.30
360;DHT22;168;48.872;9.226;2023-04-06T06:23:27;3.10;90.30
360;DHT22;168;48.872;9.226;2023-04-06T06:25:55;3.20;90.20
360;DHT22;168;48.872;9.226;2023-04-06T06:28:24;3.20;90.50
360;DHT22;168;48.872;9.226;2023-04-06T06:30:52;3.30;90.60
360;DHT22;168;48.872;9.226;2023-04-06T06:33:24;3.30;90.50
360;DHT22;168;48.872;9.226;2023-04-06T06:36:07;3.40;90.30
360;DHT22;168;48.872;9.226;2023-04-06T06:38:34;3.50;89.80
360;DHT22;168;48.872;9.226;2023-04-06T06:41:02;3.60;89.70
360;DHT22;168;48.872;9.226;2023-04-06T06:43:30;3.60;89.50
360;DHT22;168;48.872;9.226;2023-04-06T06:46:03;3.70;89.20
360;DHT22;168;48.872;9.226;2023-04-06T06:48:32;3.90;88.80
360;DHT22;168;48.872;9.226;2023-04-06T06:50:59;4.00;88.80
360;DHT22;168;48.872;9.226;2023-04-06T06:53:27;4.10;88.60
360;DHT22;168;48.872;9.226;2023-04-06T06:55:54;4.20;88.30
360;DHT22;168;48.872;9.226;2023-04-06T06:58:23;4.30;88.10
360;DHT22;168;48.872;9.226;2023-04-06T07:00:50;4.40;88.00
360;DHT22;168;48.872;9.226;2023-04-06T07:03:19;4.50;87.40
360;DHT22;168;48.872;9.226;2023-04-06T07:06:12;4.70;86.90
360;DHT22;168;48.872;9.226;2023-04-06T07:08:41;4.80;86.50
360;DHT22;168;48.872;9.226;2023-04-06T07:11:09;5.00;85.80
360;DHT22;168;48.872;9.226;2023-04-06T07:13:37;5.00;85.70
360;DHT22;168;48.872;9.226;2023-04-06T07:16:05;5.10;85.60
360;DHT22;168;48.872;9.226;2023-04-06T07:18:32;5.20;85.20
360;DHT22;168;48.872;9.226;2023-04-06T07:21:01;5.40;84.80
360;DHT22;168;48.872;9.226;2023-04-06T07:23:30;5.50;84.50
360;DHT22;168;48.872;9.226;2023-04-06T07:25:57;5.60;83.80
360;DHT22;168;48.872;9.226;2023-04-06T07:28:25;5.70;83.90
360;DHT22;168;48.872;9.226;2023-04-06T07:30:52;5.80;83.60
360;DHT22;168;48.872;9.226;2023-04-06T07:33:20;6.00;82.20
360;DHT22;168;48.872;9.226;2023-04-06T07:35:48;6.10;81.50
360;DHT22;168;48.872;9.226;2023-04-06T07:38:16;6.30;80.50
360;DHT22;168;48.872;9.226;2023-04-06T07:40:45;6.40;80.00
360;DHT22;168;48.872;9.226;2023-04-06T07:43:13;6.50;78.80
360;DHT22;168;48.872;9.226;2023-04-06T07:45:40;6.70;78.40
360;DHT22;168;48.872;9.226;2023-04-06T07:48:08;6.80;78.40
360;DHT22;168;48.872;9.226;2023-04-06T07:50:36;6.90;78.10
360;DHT22;168;48.872;9.226;2023-04-06T07:53:03;7.10;77.90
360;DHT22;168;48.872;9.226;2023-04-06T07:55:31;7.10;77.40
360;DHT22;168;48.872;9.226;2023-04-06T07:58:08;7.30;76.80
360;DHT22;168;48.872;9.226;2023-04-06T08:00:36;7.40;75.80
360;DHT22;168;48.872;9.226;2023-04-06T08:03:03;7.60;75.70
360;DHT22;168;48.872;9.226;2023-04-06T08:05:31;7.70;75.90
360;DHT22;168;48.872;9.226;2023-04-06T08:07:58;7.70;75.60
360;DHT22;168;48.872;9.226;2023-04-06T08:10:26;7.90;74.10
360;DHT22;168;48.872;9.226;2023-04-06T08:12:53;8.00;73.80
360;DHT22;168;48.872;9.226;2023-04-06T08:15:22;8.00;73.90
360;DHT22;168;48.872;9.226;2023-04-06T08:17:52;8.30;73.70
360;DHT22;168;48.872;9.226;2023-04-06T08:20:25;8.40;72.80
360;DHT22;168;48.872;9.226;2023-04-06T08:23:02;8.40;72.70
360;DHT22;168;48.872;9.226;2023-04-06T08:25:37;8.50;72.00
360;DHT22;168;48.872;9.226;2023-04-06T08:28:08;8.70;72.60
360;DHT22;168;48.872;9.226;2023-04-06T08:30:39;8.70;72.10
360;DHT22;168;48.872;9.226;2023-04-06T08:33:07;8.90;70.70
360;DHT22;168;48.872;9.226;2023-04-06T08:35:34;8.90;71.20
360;DHT22;168;48.872;9.226;2023-04-06T08:38:02;9.10;71.00
360;DHT22;168;48.872;9.226;2023-04-06T08:40:35;9.30;70.40
360;DHT22;168;48.872;9.226;2023-04-06T08:43:03;9.40;70.00
360;DHT22;168;48.872;9.226;2023-04-06T08:45:34;9.50;69.60
360;DHT22;168;48.872;9.226;2023-04-06T08:48:05;9.70;68.60
360;DHT22;168;48.872;9.226;2023-04-06T08:50:33;9.90;67.60
360;DHT22;168;48.872;9.226;2023-04-06T08:53:01;10.10;65.00
360;DHT22;168;48.872;9.226;2023-04-06T08:55:30;10.10;64.20
360;DHT22;168;48.872;9.226;2023-04-06T08:57:59;10.20;59.90
360;DHT22;168;48.872;9.226;2023-04-06T09:00:28;10.40;60.40
360;DHT22;168;48.872;9.226;2023-04-06T09:02:57;10.60;62.00
360;DHT22;168;48.872;9.226;2023-04-06T09:05:26;10.60;61.90
360;DHT22;168;48.872;9.226;2023-04-06T09:07:53;10.60;62.30
360;DHT22;168;48.872;9.226;2023-04-06T09:10:21;10.70;62.00
360;DHT22;168;48.872;9.226;2023-04-06T09:12:51;10.70;61.70
360;DHT22;168;48.872;9.226;2023-04-06T09:15:19;10.80;62.40
360;DHT22;168;48.872;9.226;2023-04-06T09:17:47;11.00;62.40
360;DHT22;168;48.872;9.226;2023-04-06T09:20:14;11.20;61.30
360;DHT22;168;48.872;9.226;2023-04-06T09:22:52;11.30;60.10
360;DHT22;168;48.872;9.226;2023-04-06T09:25:21;11.40;59.60
360;DHT22;168;48.872;9.226;2023-04-06T09:28:00;11.40;58.60
360;DHT22;168;48.872;9.226;2023-04-06T09:30:28;11.60;57.00
360;DHT22;168;48.872;9.226;2023-04-06T09:32:57;11.70;56.90
360;DHT22;168;48.872;9.226;2023-04-06T09:35:25;11.70;56.40
360;DHT22;168;48.872;9.226;2023-04-06T09:37:55;11.80;55.10
360;DHT22;168;48.872;9.226;2023-04-06T09:40:22;11.80;55.40
360;DHT22;168;48.872;9.226;2023-04-06T09:42:50;11.70;55.30
360;DHT22;168;48.872;9.226;2023-04-06T09:45:20;11.70;54.30
360;DHT22;168;48.872;9.226;2023-04-06T09:47:48;11.80;53.90
360;DHT22;168;48.872;9.226;2023-04-06T09:50:18;12.10;54.20
360;DHT22;168;48.872;9.226;2023-04-06T09:52:48;12.10;53.70
360;DHT22;168;48.872;9.226;2023-04-06T09:55:26;12.20;53.30
360;DHT22;168;48.872;9.226;2023-04-06T09:58:00;12.30;52.90
360;DHT22;168;48.872;9.226;2023-04-06T10:00:32;12.10;54.10
360;DHT22;168;48.872;9.226;2023-04-06T10:03:08;12.10;53.80
360;DHT22;168;48.872;9.226;2023-04-06T10:05:43;12.20;53.60
360;DHT22;168;48.872;9.226;2023-04-06T10:08:16;12.10;53.70
360;DHT22;168;48.872;9.226;2023-04-06T10:10:47;12.20;55.50
360;DHT22;168;48.872;9.226;2023-04-06T10:13:15;12.30;56.30
360;DHT22;168;48.872;9.226;2023-04-06T10:15:43;12.40;54.50
360;DHT22;168;48.872;9.226;2023-04-06T10:18:11;12.60;53.50
360;DHT22;168;48.872;9.226;2023-04-06T10:20:43;12.70;50.70
360;DHT22;168;48.872;9.226;2023-04-06T10:23:19;12.70;50.70
360;DHT22;168;48.872;9.226;2023-04-06T10:25:55;12.70;52.10
360;DHT22;168;48.872;9.226;2023-04-06T10:28:25;12.70;51.80
360;DHT22;168;48.872;9.226;2023-04-06T10:30:57;12.90;52.00
360;DHT22;168;48.872;9.226;2023-04-06T10:33:25;13.00;49.10
360;DHT22;168;48.872;9.226;2023-04-06T10:35:52;13.00;49.00
360;DHT22;168;48.872;9.226;2023-04-06T10:38:21;13.00;49.70
360;DHT22;168;48.872;9.226;2023-04-06T10:41:05;13.10;50.30
360;DHT22;168;48.872;9.226;2023-04-06T10:43:34;13.10;49.90
360;DHT22;168;48.872;9.226;2023-04-06T10:46:04;13.00;51.10
360;DHT22;168;48.872;9.226;2023-04-06T10:48:38;13.10;49.40
360;DHT22;168;48.872;9.226;2023-04-06T10:51:11;13.20;50.20
360;DHT22;168;48.872;9.226;2023-04-06T10:53:40;13.30;50.20
360;DHT22;168;48.872;9.226;2023-04-06T10:56:12;13.40;49.90
360;DHT22;168;48.872;9.226;2023-04-06T10:58:44;13.60;47.80
360;DHT22;168;48.872;9.226;2023-04-06T11:01:14;13.50;49.70
360;DHT22;168;48.872;9.226;2023-04-06T11:03:45;13.60;49.60
360;DHT22;168;48.872;9.226;2023-04-06T11:06:20;13.70;49.20
360;DHT22;168;48.872;9.226;2023-04-06T11:08:48;13.80;48.70
360;DHT22;168;48.872;9.226;2023-04-06T11:11:18;13.80;49.30
360;DHT22;168;48.872;9.226;2023-04-06T11:13:48;13.90;47.70
360;DHT22;168;48.872;9.226;2023-04-06T11:16:17;13.90;47.20
360;DHT22;168;48.872;9.226;2023-04-06T11:18:53;13.90;47.60
360;DHT22;168;48.872;9.226;2023-04-06T11:21:32;13.90;48.40
360;DHT22;168;48.872;9.226;2023-04-06T11:24:10;14.00;47.70
360;DHT22;168;48.872;9.226;2023-04-06T11:26:41;14.00;47.60
360;DHT22;168;48.872;9.226;2023-04-06T11:29:10;14.00;49.00
360;DHT22;168;48.872;9.226;2023-04-06T11:31:39;14.10;48.60
360;DHT22;168;48.872;9.226;2023-04-06T11:34:15;14.30;49.50
360;DHT22;168;48.872;9.226;2023-04-06T11:36:44;14.40;48.90
360;DHT22;168;48.872;9.226;2023-04-06T11:39:12;14.40;49.40
360;DHT22;168;48.872;9.226;2023-04-06T11:41:42;14.60;49.20
360;DHT22;168;48.872;9.226;2023-04-06T11:44:14;14.80;48.40
360;DHT22;168;48.872;9.226;2023-04-06T11:46:51;14.90;47.90
360;DHT22;168;48.872;9.226;2023-04-06T11:49:19;14.90;46.50
360;DHT22;168;48.872;9.226;2023-04-06T11:51:46;14.80;45.40
360;DHT22;168;48.872;9.226;2023-04-06T11:54:14;14.70;45.70
360;DHT22;168;48.872;9.226;2023-04-06T11:56:46;14.60;46.20
360;DHT22;168;48.872;9.226;2023-04-06T11:59:14;14.60;47.50
360;DHT22;168;48.872;9.226;2023-04-06T12:01:45;14.70;46.40
360;DHT22;168;48.872;9.226;2023-04-06T12:04:13;14.70;47.10
360;DHT22;168;48.872;9.226;2023-04-06T12:06:41;14.90;47.60
360;DHT22;168;48.872;9.226;2023-04-06T12:09:08;15.00;47.70
360;DHT22;168;48.872;9.226;2023-04-06T12:11:36;15.10;47.20
360;DHT22;168;48.872;9.226;2023-04-06T12:14:05;15.30;46.60
360;DHT22;168;48.872;9.226;2023-04-06T12:16:33;15.30;45.40
360;DHT22;168;48.872;9.226;2023-04-06T12:19:01;15.20;45.40
360;DHT22;168;48.872;9.226;2023-04-06T12:21:28;15.20;46.80
360;DHT22;168;48.872;9.226;2023-04-06T12:23:57;15.30;47.80
360;DHT22;168;48.872;9.226;2023-04-06T12:26:24;15.50;47.30
360;DHT22;168;48.872;9.226;2023-04-06T12:28:52;15.60;46.00
360;DHT22;168;48.872;9.226;2023-04-06T12:31:22;15.70;44.00
360;DHT22;168;48.872;9.226;2023-04-06T12:33:51;15.70;47.70
360;DHT22;168;48.872;9.226;2023-04-06T12:36:20;15.80;46.60
360;DHT22;168;48.872;9.226;2023-04-06T12:38:48;15.90;44.30
360;DHT22;168;48.872;9.226;2023-04-06T12:41:19;15.90;44.60
360;DHT22;168;48.872;9.226;2023-04-06T12:43:46;15.80;42.50
360;DHT22;168;48.872;9.226;2023-04-06T12:46:14;15.60;42.60
360;DHT22;168;48.872;9.226;2023-04-06T12:48:43;15.50;43.40
360;DHT22;168;48.872;9.226;2023-04-06T12:51:10;15.50;42.70
360;DHT22;168;48.872;9.226;2023-04-06T12:53:39;15.50;42.60
360;DHT22;168;48.872;9.226;2023-04-06T12:56:18;15.40;42.90
360;DHT22;168;48.872;9.226;2023-04-06T12:58:47;15.30;42.50
360;DHT22;168;48.872;9.226;2023-04-06T13:01:14;15.00;42.80
360;DHT22;168;48.872;9.226;2023-04-06T13:03:43;15.00;43.70
360;DHT22;168;48.872;9.226;2023-04-06T13:06:11;15.10;43.30
360;DHT22;168;48.872;9.226;2023-04-06T13:08:39;15.20;43.20
360;DHT22;168;48.872;9.226;2023-04-06T13:11:07;15.30;42.60
360;DHT22;168;48.872;9.226;2023-04-06T13:13:36;15.40;44.10
360;DHT22;168;48.872;9.226;2023-04-06T13:16:05;15.70;46.00
360;DHT22;168;48.872;9.226;2023-04-06T13:18:33;15.90;45.50
360;DHT22;168;48.872;9.226;2023-04-06T13:21:05;16.00;45.10
360;DHT22;168;48.872;9.226;2023-04-06T13:23:33;16.20;44.40
360;DHT22;168;48.872;9.226;2023-04-06T13:26:03;16.30;43.70
360;DHT22;168;48.872;9.226;2023-04-06T13:28:31;16.50;44.40
360;DHT22;168;48.872;9.226;2023-04-06T13:30:59;16.70;44.60
360;DHT22;168;48.872;9.226;2023-04-06T13:33:27;16.80;43.40
360;DHT22;168;48.872;9.226;2023-04-06T13:35:54;17.00;42.60
360;DHT22;168;48.872;9.226;2023-04-06T13:38:23;17.10;42.90
360;DHT22;168;48.872;9.226;2023-04-06T13:40:51;17.20;42.10
360;DHT22;168;48.872;9.226;2023-04-06T13:43:19;17.40;41.10
360;DHT22;168;48.872;9.226;2023-04-06T13:45:49;17.50;41.40
360;DHT22;168;48.872;9.226;2023-04-06T13:48:17;17.60;40.20
360;DHT22;168;48.872;9.226;2023-04-06T13:50:44;17.60;39.70
360;DHT22;168;48.872;9.226;2023-04-06T13:53:12;17.60;40.10
360;DHT22;168;48.872;9.226;2023-04-06T13:55:41;17.50;39.90
360;DHT22;168;48.872;9.226;2023-04-06T13:58:08;17.50;39.60
360;DHT22;168;48.872;9.226;2023-04-06T14:00:36;17.50;39.70
360;DHT22;168;48.872;9.226;2023-04-06T14:03:05;17.40;40.10
360;DHT22;168;48.872;9.226;2023-04-06T14:05:33;17.50;40.30
360;DHT22;168;48.872;9.226;2023-04-06T14:08:01;17.70;40.90
360;DHT22;168;48.872;9.226;2023-04-06T14:10:28;18.00;40.50
360;DHT22;168;48.872;9.226;2023-04-06T14:12:57;18.20;41.50
360;DHT22;168;48.872;9.226;2023-04-06T14:15:25;18.40;39.70
360;DHT22;168;48.872;9.226;2023-04-06T14:17:53;18.70;41.10
360;DHT22;168;48.872;9.226;2023-04-06T14:20:21;18.80;40.50
360;DHT22;168;48.872;9.226;2023-04-06T14:22:49;18.80;39.20
360;DHT22;168;48.872;9.226;2023-04-06T14:25:18;18.80;39.70
360;DHT22;168;48.872;9.226;2023-04-06T14:27:46;18.80;39.30
360;DHT22;168;48.872;9.226;2023-04-06T14:30:15;18.70;38.90
360;DHT22;168;48.872;9.226;2023-04-06T14:32:42;18.60;39.50
360;DHT22;168;48.872;9.226;2023-04-06T14:35:10;18.70;39.50
360;DHT22;168;48.872;9.226;2023-04-06T14:37:37;18.90;39.70
360;DHT22;168;48.872;9.226;2023-04-06T14:40:06;19.20;41.30
360;DHT22;168;48.872;9.226;2023-04-06T14:42:33;19.40;40.70
360;DHT22;168;48.872;9.226;2023-04-06T14:45:03;19.60;40.60
360;DHT22;168;48.872;9.226;2023-04-06T14:47:31;19.70;39.30
360;DHT22;168;48.872;9.226;2023-04-06T14:49:59;19.70;39.30
360;DHT22;168;48.872;9.226;2023-04-06T14:52:26;19.60;38.80
360;DHT22;168;48.872;9.226;2023-04-06T14:54:53;19.60;38.80
360;DHT22;168;48.872;9.226;2023-04-06T14:57:21;19.60;38.70
360;DHT22;168;48.872;9.226;2023-04-06T14:59:48;19.60;39.40
360;DHT22;168;48.872;9.226;2023-04-06T15:02:15;19.70;38.20
360;DHT22;168;48.872;9.226;2023-04-06T15:04:44;19.60;37.70
360;DHT22;168;48.872;9.226;2023-04-06T15:07:11;19.40;38.50
360;DHT22;168;48.872;9.226;2023-04-06T15:09:43;19.30;38.00
360;DHT22;168;48.872;9.226;2023-04-06T15:12:15;19.20;37.70
360;DHT22;168;48.872;9.226;2023-04-06T15:14:43;19.20;39.30
360;DHT22;168;48.872;9.226;2023-04-06T15:17:10;19.30;39.70
360;DHT22;168;48.872;9.226;2023-04-06T15:19:37;19.40;38.80
360;DHT22;168;48.872;9.226;2023-04-06T15:22:06;19.50;38.70
360;DHT22;168;48.872;9.226;2023-04-06T15:24:33;19.60;38.00
360;DHT22;168;48.872;9.226;2023-04-06T15:27:01;19.60;37.80
360;DHT22;168;48.872;9.226;2023-04-06T15:29:31;19.60;37.50
360;DHT22;168;48.872;9.226;2023-04-06T15:32:05;19.40;38.40
360;DHT22;168;48.872;9.226;2023-04-06T15:34:32;19.30;38.10
360;DHT22;168;48.872;9.226;2023-04-06T15:37:00;19.20;38.70
360;DHT22;168;48.872;9.226;2023-04-06T15:39:31;19.20;38.20
360;DHT22;168;48.872;9.226;2023-04-06T15:42:00;19.00;37.60
360;DHT22;168;48.872;9.226;2023-04-06T15:44:29;18.60;38.60
360;DHT22;168;48.872;9.226;2023-04-06T15:46:57;18.20;39.20
360;DHT22;168;48.872;9.226;2023-04-06T15:49:25;18.10;39.70
360;DHT22;168;48.872;9.226;2023-04-06T15:51:52;18.10;39.20
360;DHT22;168;48.872;9.226;2023-04-06T15:54:19;17.90;39.90
360;DHT22;168;48.872;9.226;2023-04-06T15:56:48;17.80;39.80
360;DHT22;168;48.872;9.226;2023-04-06T15:59:16;17.60;39.50
360;DHT22;168;48.872;9.226;2023-04-06T16:01:45;17.40;40.50
360;DHT22;168;48.872;9.226;2023-04-06T16:04:13;17.40;41.50
360;DHT22;168;48.872;9.226;2023-04-06T16:06:40;17.40;39.60
360;DHT22;168;48.872;9.226;2023-04-06T16:09:08;17.00;40.00
360;DHT22;168;48.872;9.226;2023-04-06T16:11:35;16.80;40.30
360;DHT22;168;48.872;9.226;2023-04-06T16:14:04;16.70;41.10
360;DHT22;168;48.872;9.226;2023-04-06T16:16:31;16.80;40.70
360;DHT22;168;48.872;9.226;2023-04-06T16:18:59;16.80;40.90
360;DHT22;168;48.872;9.226;2023-04-06T16:21:26;16.80;41.30
360;DHT22;168;48.872;9.226;2023-04-06T16:23:54;16.80;42.10
360;DHT22;168;48.872;9.226;2023-04-06T16:26:21;16.80;42.40
360;DHT22;168;48.872;9.226;2023-04-06T16:28:51;16.90;41.60
360;DHT22;168;48.872;9.226;2023-04-06T16:31:22;17.00;40.90
360;DHT22;168;48.872;9.226;2023-04-06T16:33:55;16.80;41.50
360;DHT22;168;48.872;9.226;2023-04-06T16:36:23;16.60;43.50
360;DHT22;168;48.872;9.226;2023-04-06T16:38:51;16.50;44.10
360;DHT22;168;48.872;9.226;2023-04-06T16:41:19;16.50;42.60
360;DHT22;168;48.872;9.226;2023-04-06T16:43:53;16.60;42.20
360;DHT22;168;48.872;9.226;2023-04-06T16:46:28;16.60;42.10
360;DHT22;168;48.872;9.226;2023-04-06T16:48:56;16.60;41.90
360;DHT22;168;48.872;9.226;2023-04-06T16:51:25;16.60;42.20
360;DHT22;168;48.872;9.226;2023-04-06T16:54:02;16.50;42.50